createdAt,value
2024-04-12T00:01:03.279Z,9.16
2024-04-12T00:03:38.109Z,9.14
2024-04-12T00:06:08.882Z,9.12
2024-04-12T00:08:50.941Z,9.00
2024-04-12T00:11:20.103Z,8.97
2024-04-12T00:13:53.855Z,9.06
2024-04-12T00:16:26.303Z,9.04
2024-04-12T00:19:08.592Z,8.88
2024-04-12T00:21:39.407Z,8.94
2024-04-12T00:24:13.798Z,8.97
2024-04-12T00:26:44.533Z,8.96
2024-04-12T00:29:27.828Z,8.88
2024-04-12T00:31:55.893Z,8.86
2024-04-12T00:34:28.068Z,8.88
2024-04-12T00:37:07.665Z,8.81
2024-04-12T00:39:41.543Z,8.74
2024-04-12T00:42:12.771Z,8.76
2024-04-12T00:44:43.755Z,8.80
2024-04-12T00:47:17.916Z,8.74
2024-04-12T00:49:53.188Z,8.66
2024-04-12T00:52:25.112Z,8.70
2024-04-12T00:55:05.143Z,8.64
2024-04-12T00:57:38.710Z,8.51
2024-04-12T01:00:13.635Z,8.62
2024-04-12T01:02:45.492Z,8.63
2024-04-12T01:05:19.565Z,8.68
2024-04-12T01:07:52.199Z,8.51
2024-04-12T01:10:32.266Z,8.52
2024-04-12T01:13:04.276Z,8.47
2024-04-12T01:15:39.443Z,8.46
2024-04-12T01:18:13.700Z,8.51
2024-04-12T01:20:47.064Z,8.48
2024-04-12T01:23:18.456Z,8.42
2024-04-12T01:25:53.030Z,8.36
2024-04-12T01:28:21.072Z,8.37
2024-04-12T01:31:02.044Z,8.40
2024-04-12T01:33:33.260Z,8.43
2024-04-12T01:36:06.848Z,8.40
2024-04-12T01:38:38.390Z,8.42
2024-04-12T01:41:12.493Z,8.29
2024-04-12T01:43:39.974Z,8.32
2024-04-12T01:46:11.101Z,8.34
2024-04-12T01:48:38.648Z,8.28
2024-04-12T01:51:15.187Z,8.25
2024-04-12T01:53:43.008Z,8.25
2024-04-12T01:56:16.014Z,8.17
2024-04-12T01:58:44.463Z,8.13
2024-04-12T02:01:18.019Z,8.11
2024-04-12T02:03:46.097Z,8.09
2024-04-12T02:06:18.022Z,8.05
2024-04-12T02:08:50.269Z,8.09
2024-04-12T02:11:27.168Z,8.08
2024-04-12T02:13:56.255Z,8.06
2024-04-12T02:16:28.388Z,8.03
2024-04-12T02:18:57.604Z,7.98
2024-04-12T02:21:33.053Z,8.01
2024-04-12T02:24:02.570Z,7.96
2024-04-12T02:26:38.733Z,7.99
2024-04-12T02:29:06.317Z,7.97
2024-04-12T02:31:50.523Z,7.95
2024-04-12T02:34:20.245Z,7.84
2024-04-12T02:36:51.072Z,7.83
2024-04-12T02:39:25.029Z,7.89
2024-04-12T02:41:58.122Z,7.84
2024-04-12T02:44:26.855Z,7.78
2024-04-12T02:46:59.967Z,7.79
2024-04-12T02:49:26.976Z,7.70
2024-04-12T02:52:01.160Z,7.79
2024-04-12T02:54:29.887Z,7.73
2024-04-12T02:57:06.916Z,7.72
2024-04-12T02:59:36.287Z,7.67
2024-04-12T03:02:06.855Z,7.63
2024-04-12T03:04:35.079Z,7.68
2024-04-12T03:07:10.827Z,7.56
2024-04-12T03:09:42.018Z,7.65
2024-04-12T03:12:14.905Z,7.69
2024-04-12T03:14:43.472Z,7.73
2024-04-12T03:17:15.842Z,7.73
2024-04-12T03:19:45.515Z,7.68
2024-04-12T03:22:22.757Z,7.67
2024-04-12T03:24:51.810Z,7.67
2024-04-12T03:27:24.806Z,7.63
2024-04-12T03:29:53.662Z,7.56
2024-04-12T03:32:30.768Z,7.61
2024-04-12T03:35:00.738Z,7.62
2024-04-12T03:37:48.691Z,7.61
2024-04-12T03:40:18.527Z,7.53
2024-04-12T03:42:51.200Z,7.49
2024-04-12T03:45:18.790Z,7.59
2024-04-12T03:47:51.861Z,7.57
2024-04-12T03:50:19.539Z,7.53
2024-04-12T03:52:49.590Z,7.49
2024-04-12T03:55:18.043Z,7.33
2024-04-12T03:57:49.691Z,7.28
2024-04-12T04:00:26.422Z,7.42
2024-04-12T04:03:00.494Z,7.38
2024-04-12T04:05:31.418Z,7.24
2024-04-12T04:08:02.135Z,7.30
2024-04-12T04:10:32.412Z,7.32
2024-04-12T04:13:05.330Z,7.25
2024-04-12T04:15:52.013Z,7.16
2024-04-12T04:18:21.052Z,7.21
2024-04-12T04:20:51.727Z,7.14
2024-04-12T04:23:22.086Z,7.12
2024-04-12T04:25:56.814Z,7.12
2024-04-12T04:28:32.334Z,7.03
2024-04-12T04:31:09.700Z,7.05
2024-04-12T04:33:42.293Z,7.05
2024-04-12T04:36:13.353Z,6.97
2024-04-12T04:38:41.812Z,6.89
2024-04-12T04:41:20.176Z,6.93
2024-04-12T04:43:47.787Z,6.89
2024-04-12T04:46:29.643Z,6.92
2024-04-12T04:49:01.319Z,6.92
2024-04-12T04:51:31.850Z,6.84
2024-04-12T04:54:01.995Z,6.95
2024-04-12T04:56:34.563Z,6.91
2024-04-12T04:59:07.767Z,6.90
2024-04-12T05:01:39.189Z,6.97
2024-04-12T05:04:19.017Z,6.89
2024-04-12T05:06:51.586Z,6.97
2024-04-12T05:09:24.264Z,6.96
2024-04-12T05:11:55.776Z,7.03
2024-04-12T05:14:48.099Z,7.07
2024-04-12T05:17:20.615Z,7.03
2024-04-12T05:19:53.495Z,7.02
2024-04-12T05:22:21.530Z,7.22
2024-04-12T05:24:53.929Z,7.55
2024-04-12T05:27:21.122Z,8.26
2024-04-12T05:29:52.241Z,8.60
2024-04-12T05:32:24.688Z,9.14
2024-04-12T05:34:55.226Z,9.43
2024-04-12T05:37:23.595Z,9.50
2024-04-12T05:39:59.245Z,9.81
2024-04-12T05:42:27.333Z,9.74
2024-04-12T05:45:00.089Z,9.75
2024-04-12T05:47:30.153Z,10.33
2024-04-12T05:50:03.071Z,10.46
2024-04-12T05:52:33.772Z,10.17
2024-04-12T05:55:17.518Z,10.20
2024-04-12T05:57:45.124Z,10.35
2024-04-12T06:00:16.274Z,11.05
2024-04-12T06:02:48.985Z,11.34
2024-04-12T06:05:24.101Z,11.08
2024-04-12T06:07:53.783Z,10.85
2024-04-12T06:10:25.390Z,11.03
2024-04-12T06:12:56.401Z,11.76
2024-04-12T06:15:29.525Z,11.56
2024-04-12T06:18:01.069Z,12.03
2024-04-12T06:20:35.578Z,12.22
2024-04-12T06:23:08.211Z,12.11
2024-04-12T06:26:05.107Z,12.58
2024-04-12T06:28:34.021Z,12.55
2024-04-12T06:31:06.994Z,12.62
2024-04-12T06:33:41.156Z,12.87
2024-04-12T06:36:14.706Z,13.38
2024-04-12T06:38:45.301Z,13.23
2024-04-12T06:41:18.809Z,13.94
2024-04-12T06:43:50.394Z,17.12
2024-04-12T06:46:22.282Z,14.92
2024-04-12T06:48:53.071Z,15.07
2024-04-12T06:51:28.949Z,16.67
2024-04-12T06:53:58.113Z,16.64
2024-04-12T06:56:45.072Z,18.46
2024-04-12T06:59:14.826Z,16.08
2024-04-12T07:01:50.351Z,17.68
2024-04-12T07:07:25.389Z,19.28
2024-04-12T07:10:01.452Z,16.73
2024-04-12T07:12:33.449Z,19.53
2024-04-12T07:15:02.000Z,17.94
2024-04-12T07:17:36.164Z,20.47
2024-04-12T07:20:28.228Z,21.06
2024-04-12T07:23:01.679Z,19.41
2024-04-12T07:26:17.801Z,21.17
2024-04-12T07:28:48.706Z,19.30
2024-04-12T07:31:50.291Z,22.47
2024-04-12T07:34:20.389Z,17.69
2024-04-12T07:37:22.146Z,17.16
2024-04-12T07:40:16.713Z,20.62
2024-04-12T07:42:53.645Z,19.17
2024-04-12T07:45:36.372Z,19.11
2024-04-12T07:48:31.690Z,18.06
2024-04-12T07:51:06.529Z,19.30
2024-04-12T07:53:40.428Z,20.96
2024-04-12T07:56:22.302Z,24.22
2024-04-12T07:59:17.607Z,24.08
2024-04-12T08:01:52.242Z,22.01
2024-04-12T08:04:35.145Z,24.40
2024-04-12T08:07:33.413Z,22.40
2024-04-12T08:10:32.943Z,21.77
2024-04-12T08:13:13.083Z,21.13
2024-04-12T08:15:43.115Z,20.56
2024-04-12T08:18:25.091Z,18.94
2024-04-12T08:21:11.175Z,22.43
2024-04-12T08:23:46.551Z,22.35
2024-04-12T08:26:47.002Z,23.94
2024-04-12T08:29:25.632Z,23.84
2024-04-12T08:32:23.822Z,23.68
2024-04-12T08:34:57.038Z,23.15
2024-04-12T08:37:35.814Z,23.63
2024-04-12T08:40:12.789Z,24.26
2024-04-12T08:43:11.725Z,24.79
2024-04-12T08:45:45.628Z,24.79
2024-04-12T08:48:32.355Z,23.74
2024-04-12T08:51:23.411Z,21.47
2024-04-12T08:54:41.341Z,24.03
2024-04-12T08:57:38.229Z,22.43
2024-04-12T09:03:27.367Z,24.85
2024-04-12T09:06:18.793Z,23.73
2024-04-12T09:08:58.912Z,23.43
2024-04-12T09:11:47.148Z,23.49
2024-04-12T09:14:22.041Z,25.74
2024-04-12T09:17:25.518Z,25.91
2024-04-12T09:19:54.855Z,25.42
2024-04-12T09:22:33.626Z,23.23
2024-04-12T09:25:21.713Z,23.65
2024-04-12T09:27:53.159Z,24.93
2024-04-12T09:30:39.278Z,24.69
2024-04-12T09:33:22.095Z,22.51
2024-04-12T09:35:58.779Z,22.78
2024-04-12T09:38:30.102Z,23.24
2024-04-12T09:41:28.742Z,23.04
2024-04-12T09:47:12.091Z,25.12
2024-04-12T09:50:02.894Z,23.97
2024-04-12T09:52:52.354Z,26.26
2024-04-12T09:55:56.521Z,26.59
2024-04-12T09:59:21.481Z,24.83
2024-04-12T10:02:15.893Z,24.70
2024-04-12T10:05:42.182Z,27.75
2024-04-12T10:08:44.163Z,25.89
2024-04-12T10:14:43.489Z,28.14
2024-04-12T10:17:54.070Z,25.60
2024-04-12T10:23:53.729Z,26.74
2024-04-12T10:26:52.745Z,26.37
2024-04-12T10:29:43.133Z,25.33
2024-04-12T10:32:31.743Z,23.64
2024-04-12T10:35:27.485Z,24.36
2024-04-12T10:38:36.899Z,26.09
2024-04-12T10:41:42.324Z,27.68
2024-04-12T10:44:23.806Z,23.70
2024-04-12T10:46:54.052Z,28.27
2024-04-12T10:50:39.677Z,24.97
2024-04-12T10:53:22.243Z,26.54
2024-04-12T10:56:01.480Z,27.16
2024-04-12T10:58:53.211Z,24.94
2024-04-12T11:01:27.735Z,27.85
2024-04-12T11:05:08.086Z,26.05
2024-04-12T11:07:54.624Z,28.06
2024-04-12T11:11:19.222Z,26.49
2024-04-12T11:14:33.182Z,27.85
2024-04-12T11:17:24.577Z,27.87
2024-04-12T11:23:32.186Z,24.41
2024-04-12T11:26:25.943Z,22.30
2024-04-12T11:29:23.014Z,22.13
2024-04-12T11:32:14.817Z,22.03
2024-04-12T11:35:05.472Z,21.41
2024-04-12T11:37:44.362Z,20.70
2024-04-12T11:43:34.376Z,19.92
2024-04-12T11:46:09.754Z,19.81
2024-04-12T11:49:04.551Z,19.86
2024-04-12T11:51:35.115Z,19.70
2024-04-12T11:54:18.117Z,19.89
2024-04-12T11:56:46.283Z,20.39
2024-04-12T11:59:29.984Z,20.62
2024-04-12T12:02:06.856Z,20.29
2024-04-12T12:04:40.927Z,20.11
2024-04-12T12:07:18.291Z,20.71
2024-04-12T12:09:54.082Z,20.52
2024-04-12T12:12:28.625Z,20.96
2024-04-12T12:15:17.228Z,21.37
2024-04-12T12:17:52.351Z,20.68
2024-04-12T12:20:24.589Z,20.15
2024-04-12T12:23:00.046Z,20.23
2024-04-12T12:25:57.590Z,20.66
2024-04-12T12:28:33.908Z,20.31
2024-04-12T12:31:15.256Z,20.17
2024-04-12T12:33:48.256Z,20.36
2024-04-12T12:36:25.125Z,20.19
2024-04-12T12:39:03.380Z,20.46
2024-04-12T12:42:21.686Z,20.64
2024-04-12T12:44:56.572Z,20.19
2024-04-12T12:48:04.023Z,21.08
2024-04-12T12:50:42.403Z,21.01
2024-04-12T12:53:19.466Z,21.37
2024-04-12T12:56:09.547Z,21.53
2024-04-12T12:58:53.079Z,22.02
2024-04-12T13:01:38.038Z,22.42
2024-04-12T13:04:09.411Z,22.47
2024-04-12T13:06:45.949Z,23.49
2024-04-12T13:09:26.555Z,22.81
2024-04-12T13:12:15.323Z,22.40
2024-04-12T13:14:50.254Z,20.85
2024-04-12T13:18:09.848Z,21.26
2024-04-12T13:20:53.786Z,21.13
2024-04-12T13:23:31.887Z,21.87
2024-04-12T13:26:25.325Z,21.00
2024-04-12T13:29:03.948Z,21.14
2024-04-12T13:31:40.637Z,20.60
2024-04-12T13:37:26.432Z,20.82
2024-04-12T13:40:19.949Z,21.33
2024-04-12T13:43:01.089Z,21.80
2024-04-12T13:46:03.510Z,22.07
2024-04-12T13:49:02.294Z,21.13
2024-04-12T13:51:52.018Z,20.81
2024-04-12T13:54:35.715Z,20.35
2024-04-12T13:57:24.542Z,21.37
2024-04-12T13:59:55.864Z,22.00
2024-04-12T14:02:34.718Z,20.70
2024-04-12T14:05:19.046Z,20.79
2024-04-12T14:07:51.214Z,21.21
2024-04-12T14:10:33.437Z,20.23
2024-04-12T14:13:22.808Z,21.01
2024-04-12T14:16:05.093Z,20.83
2024-04-12T14:18:36.204Z,20.84
2024-04-12T14:21:10.346Z,21.26
2024-04-12T14:24:00.227Z,20.79
2024-04-12T14:26:38.394Z,20.15
2024-04-12T14:29:17.918Z,19.96
2024-04-12T14:31:55.950Z,20.17
2024-04-12T14:34:30.515Z,20.80
2024-04-12T14:37:06.665Z,20.64
2024-04-12T14:39:36.847Z,20.50
2024-04-12T14:42:09.307Z,20.08
2024-04-12T14:44:51.870Z,21.14
2024-04-12T14:47:27.147Z,20.50
2024-04-12T14:49:57.410Z,20.71
2024-04-12T14:52:31.329Z,21.27
2024-04-12T14:55:14.058Z,21.13
2024-04-12T14:57:52.386Z,20.87
2024-04-12T15:00:37.495Z,20.56
2024-04-12T15:03:24.192Z,20.86
2024-04-12T15:06:14.791Z,20.49
2024-04-12T15:09:17.539Z,20.46
2024-04-12T15:12:07.135Z,20.59
2024-04-12T15:15:04.579Z,20.22
2024-04-12T15:17:51.876Z,21.38
2024-04-12T15:20:42.714Z,20.46
2024-04-12T15:23:32.716Z,20.77
2024-04-12T15:26:28.306Z,20.22
2024-04-12T15:29:15.491Z,20.66
2024-04-12T15:32:07.805Z,20.58
2024-04-12T15:34:53.939Z,20.76
2024-04-12T15:37:48.426Z,20.68
2024-04-12T15:40:45.674Z,20.31
2024-04-12T15:43:42.026Z,20.47
2024-04-12T15:46:30.594Z,20.08
2024-04-12T15:49:22.829Z,19.93
2024-04-12T15:52:11.532Z,19.83
2024-04-12T15:54:53.042Z,19.58
2024-04-12T15:57:49.114Z,19.69
2024-04-12T16:00:41.317Z,19.76
2024-04-12T16:03:37.026Z,19.92
2024-04-12T16:06:31.993Z,19.94
2024-04-12T16:09:23.154Z,19.71
2024-04-12T16:15:13.750Z,19.88
2024-04-12T16:17:45.728Z,20.55
2024-04-12T16:20:16.736Z,20.18
2024-04-12T16:22:58.967Z,20.16
2024-04-12T16:25:34.613Z,20.34
2024-04-12T16:28:08.899Z,20.17
2024-04-12T16:30:48.679Z,19.81
2024-04-12T16:33:31.491Z,20.10
2024-04-12T16:36:05.286Z,19.85
2024-04-12T16:38:43.085Z,20.09
2024-04-12T16:41:22.001Z,19.68
2024-04-12T16:43:56.458Z,19.59
2024-04-12T16:46:35.422Z,19.90
2024-04-12T16:49:07.111Z,19.73
2024-04-12T16:51:49.622Z,19.87
2024-04-12T16:54:30.796Z,19.48
2024-04-12T16:57:11.571Z,19.39
2024-04-12T16:59:45.126Z,19.19
2024-04-12T17:02:17.963Z,19.15
2024-04-12T17:04:46.256Z,19.00
2024-04-12T17:07:29.719Z,18.95
2024-04-12T17:10:20.548Z,18.80
2024-04-12T17:12:53.645Z,18.92
2024-04-12T17:15:24.564Z,18.81
2024-04-12T17:17:58.120Z,18.79
2024-04-12T17:20:25.594Z,18.72
2024-04-12T17:22:59.059Z,18.70
2024-04-12T17:25:38.719Z,18.66
2024-04-12T17:28:16.670Z,18.62
2024-04-12T17:30:52.997Z,18.53
2024-04-12T17:33:31.355Z,18.45
2024-04-12T17:36:11.857Z,18.33
2024-04-12T17:38:46.581Z,18.35
2024-04-12T17:41:19.757Z,18.32
2024-04-12T17:43:54.777Z,18.24
2024-04-12T17:46:26.929Z,18.23
2024-04-12T17:49:10.572Z,18.19
2024-04-12T17:51:38.318Z,18.07
2024-04-12T17:54:13.117Z,18.01
2024-04-12T17:56:44.457Z,17.93
2024-04-12T17:59:15.455Z,17.74
2024-04-12T18:01:57.358Z,17.63
2024-04-12T18:04:30.747Z,17.55
2024-04-12T18:06:58.251Z,17.54
2024-04-12T18:09:31.584Z,17.41
2024-04-12T18:12:04.680Z,17.38
2024-04-12T18:14:35.042Z,17.32
2024-04-12T18:17:06.485Z,17.26
2024-04-12T18:19:34.846Z,17.26
2024-04-12T18:22:05.504Z,17.30
2024-04-12T18:24:33.022Z,17.28
2024-04-12T18:27:06.640Z,17.15
2024-04-12T18:29:37.164Z,17.10
2024-04-12T18:32:10.177Z,17.16
2024-04-12T18:34:39.668Z,16.98
2024-04-12T18:37:38.866Z,16.73
2024-04-12T18:40:26.611Z,16.66
2024-04-12T18:43:18.026Z,16.51
2024-04-12T18:45:55.314Z,16.38
2024-04-12T18:48:28.174Z,16.22
2024-04-12T18:50:59.549Z,16.20
2024-04-12T18:53:31.199Z,16.10
2024-04-12T18:55:59.320Z,15.96
2024-04-12T18:58:35.410Z,15.82
2024-04-12T19:01:05.358Z,15.80
2024-04-12T19:03:36.113Z,15.79
2024-04-12T19:06:07.120Z,15.68
2024-04-12T19:08:43.005Z,15.60
2024-04-12T19:11:13.749Z,15.47
2024-04-12T19:13:45.402Z,15.43
2024-04-12T19:16:15.488Z,15.21
2024-04-12T19:18:47.856Z,15.24
2024-04-12T19:21:19.375Z,15.23
2024-04-12T19:24:03.838Z,15.11
2024-04-12T19:26:43.860Z,15.14
2024-04-12T19:29:14.484Z,15.05
2024-04-12T19:31:47.558Z,15.01
2024-04-12T19:34:17.237Z,15.02
2024-04-12T19:36:51.767Z,14.89
2024-04-12T19:39:20.246Z,14.86
2024-04-12T19:41:50.799Z,14.84
2024-04-12T19:44:21.258Z,14.83
2024-04-12T19:46:55.910Z,14.72
2024-04-12T19:49:25.271Z,14.70
2024-04-12T19:51:55.588Z,14.73
2024-04-12T19:54:23.898Z,14.66
2024-04-12T19:56:54.263Z,14.62
2024-04-12T19:59:24.506Z,14.62
2024-04-12T20:01:56.827Z,14.58
2024-04-12T20:04:25.400Z,14.56
2024-04-12T20:06:55.983Z,14.47
2024-04-12T20:09:24.239Z,14.52
2024-04-12T20:12:00.532Z,14.28
2024-04-12T20:14:32.954Z,14.16
2024-04-12T20:17:06.135Z,14.23
2024-04-12T20:19:35.771Z,14.15
2024-04-12T20:22:06.800Z,14.04
2024-04-12T20:24:35.438Z,14.01
2024-04-12T20:27:05.939Z,13.94
2024-04-12T20:29:37.398Z,13.91
2024-04-12T20:32:24.672Z,13.95
2024-04-12T20:35:20.177Z,13.78
2024-04-12T20:37:50.915Z,13.89
2024-04-12T20:40:18.550Z,13.75
2024-04-12T20:42:50.851Z,13.72
2024-04-12T20:45:22.952Z,13.67
2024-04-12T20:47:52.814Z,13.61
2024-04-12T20:50:20.120Z,13.59
2024-04-12T20:52:50.455Z,13.61
2024-04-12T20:55:17.868Z,13.57
2024-04-12T20:57:48.707Z,13.59
2024-04-12T21:00:18.704Z,13.57
2024-04-12T21:02:53.425Z,13.55
2024-04-12T21:05:21.198Z,13.48
2024-04-12T21:07:53.147Z,13.45
2024-04-12T21:10:25.000Z,13.44
2024-04-12T21:12:59.537Z,13.37
2024-04-12T21:15:27.057Z,13.31
2024-04-12T21:18:03.207Z,13.27
2024-04-12T21:20:31.173Z,13.20
2024-04-12T21:23:03.760Z,13.17
2024-04-12T21:25:33.704Z,13.24
2024-04-12T21:28:07.048Z,13.12
2024-04-12T21:30:37.052Z,13.23
2024-04-12T21:33:15.844Z,13.18
2024-04-12T21:35:54.060Z,13.16
2024-04-12T21:38:25.109Z,13.11
2024-04-12T21:41:06.143Z,13.07
2024-04-12T21:43:37.141Z,13.07
2024-04-12T21:46:06.210Z,13.02
2024-04-12T21:48:41.223Z,13.00
2024-04-12T21:51:11.605Z,12.95
2024-04-12T21:53:44.569Z,12.82
2024-04-12T21:56:15.622Z,12.92
2024-04-12T21:58:46.991Z,12.81
2024-04-12T22:01:17.214Z,12.84
2024-04-12T22:03:54.191Z,12.76
2024-04-12T22:06:21.919Z,12.71
2024-04-12T22:08:55.109Z,12.77
2024-04-12T22:11:25.204Z,12.76
2024-04-12T22:13:55.808Z,12.70
2024-04-12T22:16:23.581Z,12.68
2024-04-12T22:18:58.450Z,12.56
2024-04-12T22:21:27.414Z,12.44
2024-04-12T22:23:59.918Z,12.38
2024-04-12T22:26:34.574Z,12.34
2024-04-12T22:29:05.154Z,12.26
2024-04-12T22:31:32.730Z,12.23
2024-04-12T22:34:05.698Z,12.27
2024-04-12T22:36:32.951Z,12.22
2024-04-12T22:39:04.650Z,12.20
2024-04-12T22:41:32.226Z,12.22
2024-04-12T22:44:03.284Z,12.17
2024-04-12T22:46:30.877Z,12.15
2024-04-12T22:49:07.404Z,12.06
2024-04-12T22:51:36.223Z,12.14
2024-04-12T22:54:06.608Z,12.02
2024-04-12T22:56:37.073Z,11.99
2024-04-12T22:59:07.292Z,11.99
2024-04-12T23:01:39.682Z,11.95
2024-04-12T23:04:14.133Z,11.94
2024-04-12T23:06:42.848Z,11.92
2024-04-12T23:09:13.252Z,11.92
2024-04-12T23:11:41.738Z,12.02
2024-04-12T23:14:12.257Z,11.93
2024-04-12T23:16:39.450Z,11.87
2024-04-12T23:19:10.856Z,11.87
2024-04-12T23:21:40.831Z,11.80
2024-04-12T23:24:12.655Z,11.79
2024-04-12T23:26:40.919Z,11.77
2024-04-12T23:29:11.302Z,11.70
2024-04-12T23:31:41.106Z,11.66
2024-04-12T23:34:14.118Z,11.67
2024-04-12T23:36:44.561Z,11.62
2024-04-12T23:39:18.161Z,11.60
2024-04-12T23:41:45.497Z,11.56
2024-04-12T23:44:17.532Z,11.45
2024-04-12T23:46:45.703Z,11.42
2024-04-12T23:49:18.765Z,11.34
2024-04-12T23:51:50.463Z,11.32
2024-04-12T23:54:22.596Z,11.37
2024-04-12T23:56:49.928Z,11.39
2024-04-12T23:59:20.112Z,11.38
